createdAt,value
2023-03-02T00:02:13.086Z,87.70
2023-03-02T00:04:54.859Z,87.90
2023-03-02T00:07:27.677Z,88.20
2023-03-02T00:09:55.064Z,88.20
2023-03-02T00:12:21.861Z,88.60
2023-03-02T00:14:48.504Z,88.70
2023-03-02T00:17:15.144Z,88.90
2023-03-02T00:19:41.953Z,89.00
2023-03-02T00:22:10.149Z,88.90
2023-03-02T00:24:37.697Z,88.90
2023-03-02T00:27:04.324Z,88.70
2023-03-02T00:29:30.955Z,88.30
2023-03-02T00:31:57.636Z,88.00
2023-03-02T00:34:24.529Z,87.50
2023-03-02T00:36:51.217Z,87.30
2023-03-02T00:39:19.920Z,87.20
2023-03-02T00:41:47.377Z,87.00
2023-03-02T00:44:17.472Z,87.00
2023-03-02T00:46:44.864Z,87.20
2023-03-02T00:49:12.751Z,87.30
2023-03-02T00:51:39.398Z,87.50
2023-03-02T00:54:06.529Z,88.20
2023-03-02T00:56:34.004Z,88.70
2023-03-02T00:59:06.284Z,89.40
2023-03-02T01:01:33.552Z,89.90
2023-03-02T01:04:00.323Z,90.30
2023-03-02T01:06:27.060Z,90.40
2023-03-02T01:08:53.891Z,90.50
2023-03-02T01:11:22.216Z,90.50
2023-03-02T01:13:50.221Z,90.50
2023-03-02T01:16:17.238Z,90.50
2023-03-02T01:18:43.975Z,90.30
2023-03-02T01:21:15.753Z,89.80
2023-03-02T01:23:42.514Z,88.70
2023-03-02T01:26:09.253Z,87.90
2023-03-02T01:28:36.643Z,87.40
2023-03-02T01:31:04.405Z,87.00
2023-03-02T01:33:32.177Z,86.70
2023-03-02T01:35:58.865Z,86.10
2023-03-02T01:38:25.912Z,85.90
2023-03-02T01:40:52.872Z,85.60
2023-03-02T01:43:19.625Z,85.70
2023-03-02T01:45:51.638Z,85.80
2023-03-02T01:48:29.312Z,85.80
2023-03-02T01:50:57.421Z,86.00
2023-03-02T01:53:28.416Z,86.20
2023-03-02T01:55:55.964Z,86.10
2023-03-02T01:58:22.906Z,86.10
2023-03-02T02:00:52.225Z,85.80
2023-03-02T02:03:26.951Z,85.50
2023-03-02T02:06:06.219Z,85.20
2023-03-02T02:08:33.640Z,85.40
2023-03-02T02:11:00.927Z,85.40
2023-03-02T02:13:27.656Z,84.90
2023-03-02T02:15:54.567Z,85.00
2023-03-02T02:18:21.279Z,85.10
2023-03-02T02:20:52.032Z,84.80
2023-03-02T02:23:36.554Z,84.30
2023-03-02T02:26:13.491Z,84.30
2023-03-02T02:28:57.836Z,84.30
2023-03-02T02:31:37.547Z,84.30
2023-03-02T02:34:22.312Z,84.20
2023-03-02T02:36:55.798Z,84.00
2023-03-02T02:39:31.195Z,84.00
2023-03-02T02:42:04.748Z,84.00
2023-03-02T02:44:31.885Z,84.00
2023-03-02T02:46:59.863Z,84.00
2023-03-02T02:49:37.329Z,84.30
2023-03-02T02:52:05.846Z,84.10
2023-03-02T02:54:35.483Z,84.20
2023-03-02T02:57:03.710Z,84.20
2023-03-02T02:59:42.636Z,84.70
2023-03-02T03:02:20.482Z,84.60
2023-03-02T03:04:47.454Z,84.80
2023-03-02T03:07:23.820Z,85.20
2023-03-02T03:09:59.473Z,84.60
2023-03-02T03:12:28.190Z,84.70
2023-03-02T03:14:55.725Z,85.40
2023-03-02T03:17:22.541Z,85.40
2023-03-02T03:20:06.061Z,85.70
2023-03-02T03:22:37.282Z,85.60
2023-03-02T03:25:05.701Z,84.90
2023-03-02T03:27:32.855Z,84.90
2023-03-02T03:30:01.949Z,84.70
2023-03-02T03:32:34.251Z,85.40
2023-03-02T03:35:01.073Z,86.30
2023-03-02T03:37:31.179Z,86.50
2023-03-02T03:39:57.947Z,87.00
2023-03-02T03:42:25.291Z,87.00
2023-03-02T03:44:54.245Z,87.10
2023-03-02T03:47:21.767Z,87.20
2023-03-02T03:49:50.009Z,87.50
2023-03-02T03:52:17.154Z,87.80
2023-03-02T03:54:44.007Z,87.80
2023-03-02T03:57:11.986Z,87.30
2023-03-02T03:59:39.191Z,86.60
2023-03-02T04:02:06.413Z,86.40
2023-03-02T04:04:42.384Z,86.60
2023-03-02T04:07:14.382Z,86.20
2023-03-02T04:09:42.855Z,85.70
2023-03-02T04:12:12.994Z,85.60
2023-03-02T04:14:43.998Z,85.40
2023-03-02T04:17:11.277Z,85.40
2023-03-02T04:19:41.835Z,85.20
2023-03-02T04:22:09.282Z,84.90
2023-03-02T04:24:35.954Z,85.00
2023-03-02T04:27:04.365Z,85.20
2023-03-02T04:29:32.368Z,85.40
2023-03-02T04:32:00.741Z,85.20
2023-03-02T04:34:28.334Z,85.00
2023-03-02T04:36:55.766Z,85.50
2023-03-02T04:39:23.508Z,85.50
2023-03-02T04:41:52.466Z,85.40
2023-03-02T04:44:20.393Z,85.30
2023-03-02T04:46:48.223Z,85.20
2023-03-02T04:49:16.270Z,85.30
2023-03-02T04:51:45.227Z,85.60
2023-03-02T04:54:23.182Z,86.00
2023-03-02T04:56:51.512Z,86.20
2023-03-02T04:59:20.398Z,86.30
2023-03-02T05:01:47.748Z,86.60
2023-03-02T05:04:15.287Z,86.70
2023-03-02T05:06:41.986Z,87.00
2023-03-02T05:09:08.847Z,87.20
2023-03-02T05:11:35.517Z,87.40
2023-03-02T05:14:04.549Z,87.50
2023-03-02T05:16:34.105Z,87.70
2023-03-02T05:19:02.992Z,87.90
2023-03-02T05:21:30.405Z,87.90
2023-03-02T05:23:58.899Z,88.00
2023-03-02T05:26:25.617Z,88.00
2023-03-02T05:28:54.017Z,88.20
2023-03-02T05:31:42.014Z,88.40
2023-03-02T05:34:11.450Z,88.40
2023-03-02T05:36:38.787Z,88.40
2023-03-02T05:39:07.044Z,88.50
2023-03-02T05:41:34.228Z,88.70
2023-03-02T05:44:01.603Z,88.90
2023-03-02T05:46:28.342Z,89.00
2023-03-02T05:48:55.008Z,89.20
2023-03-02T05:51:21.746Z,89.20
2023-03-02T05:53:48.461Z,89.20
2023-03-02T05:56:15.157Z,89.20
2023-03-02T05:58:41.779Z,89.10
2023-03-02T06:01:12.682Z,88.90
2023-03-02T06:03:43.123Z,88.80
2023-03-02T06:06:13.665Z,88.60
2023-03-02T06:08:40.945Z,88.40
2023-03-02T06:11:08.193Z,88.30
2023-03-02T06:13:35.202Z,88.10
2023-03-02T06:16:01.953Z,88.00
2023-03-02T06:18:28.674Z,88.30
2023-03-02T06:20:55.433Z,88.00
2023-03-02T06:23:22.420Z,88.10
2023-03-02T06:25:49.358Z,87.90
2023-03-02T06:28:18.717Z,87.90
2023-03-02T06:30:46.332Z,88.20
2023-03-02T06:33:12.938Z,88.10
2023-03-02T06:35:39.984Z,88.30
2023-03-02T06:38:06.698Z,88.50
2023-03-02T06:40:33.360Z,88.60
2023-03-02T06:43:03.820Z,88.70
2023-03-02T06:45:33.626Z,89.10
2023-03-02T06:48:01.365Z,89.20
2023-03-02T06:50:28.793Z,89.20
2023-03-02T06:52:56.095Z,89.20
2023-03-02T06:55:23.295Z,88.90
2023-03-02T06:57:50.215Z,89.10
2023-03-02T07:00:17.708Z,88.80
2023-03-02T07:02:45.194Z,88.60
2023-03-02T07:05:12.906Z,88.70
2023-03-02T07:07:39.869Z,88.30
2023-03-02T07:10:07.822Z,88.20
2023-03-02T07:12:34.904Z,88.10
2023-03-02T07:15:01.595Z,87.60
2023-03-02T07:17:28.309Z,87.60
2023-03-02T07:19:54.989Z,87.70
2023-03-02T07:22:22.119Z,87.30
2023-03-02T07:24:48.765Z,87.40
2023-03-02T07:27:15.427Z,87.30
2023-03-02T07:29:42.113Z,87.60
2023-03-02T07:32:11.366Z,87.00
2023-03-02T07:34:38.994Z,86.80
2023-03-02T07:37:06.433Z,86.70
2023-03-02T07:39:33.171Z,86.60
2023-03-02T07:42:01.071Z,86.60
2023-03-02T07:44:28.937Z,86.10
2023-03-02T07:46:56.321Z,85.80
2023-03-02T07:49:22.998Z,85.70
2023-03-02T07:51:49.692Z,85.30
2023-03-02T07:54:16.324Z,85.40
2023-03-02T07:56:42.974Z,85.10
2023-03-02T07:59:11.387Z,85.00
2023-03-02T08:01:38.146Z,85.10
2023-03-02T08:04:04.939Z,85.10
2023-03-02T08:06:31.761Z,85.10
2023-03-02T08:09:00.236Z,84.70
2023-03-02T08:11:26.921Z,84.80
2023-03-02T08:13:53.587Z,84.80
2023-03-02T08:16:21.920Z,84.70
2023-03-02T08:18:48.607Z,84.50
2023-03-02T08:21:18.548Z,84.50
2023-03-02T08:23:45.721Z,84.00
2023-03-02T08:26:16.464Z,83.80
2023-03-02T08:28:44.091Z,84.00
2023-03-02T08:31:11.625Z,83.50
2023-03-02T08:33:38.482Z,82.40
2023-03-02T08:36:14.947Z,81.50
2023-03-02T08:38:42.087Z,80.20
2023-03-02T08:41:12.266Z,79.30
2023-03-02T08:43:39.161Z,77.90
2023-03-02T08:46:06.346Z,77.70
2023-03-02T08:48:33.125Z,76.50
2023-03-02T08:51:04.089Z,75.10
2023-03-02T08:53:33.605Z,74.90
2023-03-02T08:56:00.622Z,73.90
2023-03-02T08:58:27.704Z,73.20
2023-03-02T09:00:54.406Z,72.70
2023-03-02T09:03:21.320Z,72.60
2023-03-02T09:05:48.006Z,72.30
2023-03-02T09:08:14.672Z,70.10
2023-03-02T09:10:41.326Z,69.80
2023-03-02T09:13:08.636Z,68.80
2023-03-02T09:15:35.591Z,69.30
2023-03-02T09:18:02.653Z,69.50
2023-03-02T09:20:29.365Z,69.60
2023-03-02T09:22:56.013Z,68.90
2023-03-02T09:25:22.674Z,68.30
2023-03-02T09:27:49.329Z,68.10
2023-03-02T09:30:16.319Z,67.90
2023-03-02T09:32:43.141Z,67.00
2023-03-02T09:35:10.264Z,67.10
2023-03-02T09:37:38.725Z,67.40
2023-03-02T09:40:15.725Z,67.70
2023-03-02T09:42:44.471Z,67.80
2023-03-02T09:45:28.956Z,67.30
2023-03-02T09:48:14.299Z,66.40
2023-03-02T09:51:04.069Z,66.50
2023-03-02T09:53:53.003Z,65.90
2023-03-02T09:56:21.109Z,65.90
2023-03-02T09:59:03.209Z,65.70
2023-03-02T10:01:43.255Z,65.30
2023-03-02T10:04:19.782Z,66.30
2023-03-02T10:06:46.691Z,64.40
2023-03-02T10:09:13.378Z,64.60
2023-03-02T10:11:54.825Z,63.40
2023-03-02T10:14:33.205Z,63.70
2023-03-02T10:17:31.391Z,63.80
2023-03-02T10:20:08.429Z,63.50
2023-03-02T10:22:40.825Z,62.60
2023-03-02T10:25:41.976Z,62.60
2023-03-02T10:28:21.218Z,61.50
2023-03-02T10:31:12.962Z,61.30
2023-03-02T10:33:41.927Z,61.30
2023-03-02T10:36:38.907Z,61.00
2023-03-02T10:39:16.826Z,60.50
2023-03-02T10:41:49.741Z,60.90
2023-03-02T10:44:27.058Z,60.00
2023-03-02T10:46:54.044Z,64.30
2023-03-02T10:49:33.199Z,60.40
2023-03-02T10:52:02.523Z,58.90
2023-03-02T10:54:34.588Z,58.60
2023-03-02T10:57:04.080Z,60.00
2023-03-02T10:59:44.633Z,59.10
2023-03-02T11:02:13.301Z,58.40
2023-03-02T11:04:40.026Z,58.40
2023-03-02T11:07:17.669Z,58.10
2023-03-02T11:09:56.207Z,58.50
2023-03-02T11:12:23.581Z,58.30
2023-03-02T11:15:00.604Z,58.40
2023-03-02T11:17:34.408Z,57.20
2023-03-02T11:20:03.526Z,56.80
2023-03-02T11:22:37.826Z,58.90
2023-03-02T11:25:11.690Z,57.80
2023-03-02T11:27:42.921Z,57.40
2023-03-02T11:30:15.760Z,56.30
2023-03-02T11:32:58.590Z,56.30
2023-03-02T11:35:38.392Z,56.10
2023-03-02T11:38:19.420Z,57.00
2023-03-02T11:40:54.832Z,55.90
2023-03-02T11:43:21.556Z,55.70
2023-03-02T11:45:56.738Z,56.00
2023-03-02T11:48:32.712Z,55.90
2023-03-02T11:51:04.339Z,57.40
2023-03-02T11:53:42.620Z,55.90
2023-03-02T11:56:10.056Z,55.80
2023-03-02T11:58:38.606Z,56.10
2023-03-02T12:01:11.500Z,55.90
2023-03-02T12:03:41.110Z,56.00
2023-03-02T12:06:36.233Z,56.90
2023-03-02T12:09:11.835Z,57.20
2023-03-02T12:11:40.973Z,57.40
2023-03-02T12:14:36.900Z,57.10
2023-03-02T12:17:26.824Z,57.90
2023-03-02T12:20:07.322Z,57.50
2023-03-02T12:22:35.731Z,58.20
2023-03-02T12:25:18.341Z,58.60
2023-03-02T12:27:47.773Z,58.20
2023-03-02T12:30:23.428Z,57.60
2023-03-02T12:33:14.864Z,59.10
2023-03-02T12:35:42.346Z,57.90
2023-03-02T12:38:29.151Z,57.70
2023-03-02T12:41:31.435Z,58.20
2023-03-02T12:44:16.907Z,58.20
2023-03-02T12:46:48.749Z,59.00
2023-03-02T12:49:15.412Z,58.50
2023-03-02T12:51:52.503Z,57.30
2023-03-02T12:54:22.111Z,57.10
2023-03-02T12:56:49.315Z,57.20
2023-03-02T12:59:27.959Z,57.50
2023-03-02T13:02:14.195Z,58.30
2023-03-02T13:04:40.878Z,58.30
2023-03-02T13:07:19.566Z,59.60
2023-03-02T13:09:57.231Z,58.70
2023-03-02T13:12:29.380Z,58.20
2023-03-02T13:14:58.998Z,58.90
2023-03-02T13:17:31.810Z,60.50
2023-03-02T13:20:00.623Z,60.20
2023-03-02T13:22:28.265Z,60.30
2023-03-02T13:25:00.372Z,61.50
2023-03-02T13:27:27.584Z,61.00
2023-03-02T13:29:56.492Z,61.80
2023-03-02T13:32:40.020Z,62.20
2023-03-02T13:35:18.056Z,62.00
2023-03-02T13:37:46.228Z,61.50
2023-03-02T13:40:22.027Z,61.80
2023-03-02T13:42:48.836Z,62.50
2023-03-02T13:45:23.428Z,62.90
2023-03-02T13:47:50.129Z,62.80
2023-03-02T13:50:23.737Z,62.50
2023-03-02T13:52:51.490Z,60.50
2023-03-02T13:55:21.187Z,61.90
2023-03-02T13:57:49.656Z,62.40
2023-03-02T14:00:21.245Z,61.40
2023-03-02T14:02:50.383Z,61.40
2023-03-02T14:05:23.822Z,60.90
2023-03-02T14:07:50.845Z,62.00
2023-03-02T14:10:19.281Z,62.70
2023-03-02T14:13:08.496Z,61.80
2023-03-02T14:15:41.302Z,62.30
2023-03-02T14:18:26.892Z,62.00
2023-03-02T14:20:54.125Z,62.30
2023-03-02T14:23:20.953Z,61.90
2023-03-02T14:25:48.281Z,62.60
2023-03-02T14:28:22.482Z,63.40
2023-03-02T14:30:53.325Z,61.80
2023-03-02T14:33:21.035Z,62.50
2023-03-02T14:35:49.078Z,62.80
2023-03-02T14:38:15.981Z,62.30
2023-03-02T14:40:42.850Z,62.10
2023-03-02T14:43:10.383Z,62.00
2023-03-02T14:45:36.989Z,62.10
2023-03-02T14:48:03.783Z,62.60
2023-03-02T14:50:32.357Z,62.00
2023-03-02T14:52:59.377Z,61.40
2023-03-02T14:55:28.644Z,62.50
2023-03-02T14:58:00.132Z,62.90
2023-03-02T15:00:27.129Z,61.40
2023-03-02T15:02:53.876Z,61.20
2023-03-02T15:05:21.011Z,61.20
2023-03-02T15:07:48.372Z,61.20
2023-03-02T15:10:18.246Z,61.30
2023-03-02T15:12:45.198Z,61.70
2023-03-02T15:15:12.928Z,61.70
2023-03-02T15:17:40.687Z,61.70
2023-03-02T15:20:08.487Z,68.50
2023-03-02T15:22:35.171Z,60.90
2023-03-02T15:25:01.797Z,61.60
2023-03-02T15:27:28.433Z,62.20
2023-03-02T15:29:56.810Z,62.50
2023-03-02T15:32:24.041Z,62.80
2023-03-02T15:34:51.040Z,62.60
2023-03-02T15:37:18.070Z,62.70
2023-03-02T15:39:45.254Z,63.30
2023-03-02T15:42:13.812Z,63.10
2023-03-02T15:44:40.707Z,63.00
2023-03-02T15:47:07.980Z,64.00
2023-03-02T15:49:34.772Z,64.00
2023-03-02T15:52:01.752Z,64.40
2023-03-02T15:54:28.979Z,63.90
2023-03-02T15:56:56.023Z,64.40
2023-03-02T15:59:30.523Z,63.90
2023-03-02T16:02:02.218Z,64.70
2023-03-02T16:04:30.639Z,64.70
2023-03-02T16:06:57.469Z,65.00
2023-03-02T16:09:25.478Z,65.00
2023-03-02T16:11:52.667Z,65.40
2023-03-02T16:14:19.336Z,65.50
2023-03-02T16:16:46.627Z,65.50
2023-03-02T16:19:18.450Z,66.20
2023-03-02T16:21:46.066Z,66.30
2023-03-02T16:24:13.041Z,66.40
2023-03-02T16:26:39.785Z,66.60
2023-03-02T16:29:09.857Z,66.90
2023-03-02T16:31:38.300Z,67.00
2023-03-02T16:34:08.289Z,67.20
2023-03-02T16:36:36.767Z,67.30
2023-03-02T16:39:03.930Z,67.80
2023-03-02T16:41:30.627Z,68.10
2023-03-02T16:43:58.790Z,68.50
2023-03-02T16:46:28.091Z,68.80
2023-03-02T16:48:54.987Z,68.60
2023-03-02T16:51:21.921Z,69.10
2023-03-02T16:53:49.398Z,69.60
2023-03-02T16:56:16.623Z,69.90
2023-03-02T16:58:43.564Z,70.60
2023-03-02T17:01:13.809Z,70.80
2023-03-02T17:03:42.276Z,70.50
2023-03-02T17:06:10.771Z,70.80
2023-03-02T17:08:37.794Z,71.10
2023-03-02T17:11:04.664Z,71.30
2023-03-02T17:13:31.980Z,71.50
2023-03-02T17:15:59.215Z,71.80
2023-03-02T17:18:27.522Z,72.20
2023-03-02T17:20:56.156Z,72.50
2023-03-02T17:23:23.387Z,72.90
2023-03-02T17:25:50.100Z,73.10
2023-03-02T17:28:17.277Z,73.60
2023-03-02T17:30:44.806Z,74.00
2023-03-02T17:33:11.604Z,74.30
2023-03-02T17:35:38.249Z,74.70
2023-03-02T17:38:05.632Z,75.10
2023-03-02T17:40:32.611Z,75.30
2023-03-02T17:42:59.367Z,75.60
2023-03-02T17:45:28.610Z,75.70
2023-03-02T17:47:57.402Z,75.60
2023-03-02T17:50:24.558Z,75.80
2023-03-02T17:52:51.261Z,75.80
2023-03-02T17:55:18.811Z,76.10
2023-03-02T17:57:46.218Z,76.20
2023-03-02T18:00:16.540Z,76.40
2023-03-02T18:02:43.358Z,76.80
2023-03-02T18:05:10.715Z,76.80
2023-03-02T18:07:38.232Z,76.90
2023-03-02T18:10:06.445Z,77.00
2023-03-02T18:12:33.901Z,77.30
2023-03-02T18:15:00.608Z,77.30
2023-03-02T18:17:27.403Z,77.30
2023-03-02T18:19:54.178Z,77.60
2023-03-02T18:22:22.157Z,77.90
2023-03-02T18:24:50.337Z,78.30
2023-03-02T18:27:17.403Z,78.80
2023-03-02T18:29:44.199Z,79.40
2023-03-02T18:32:11.522Z,79.80
2023-03-02T18:34:38.804Z,80.30
2023-03-02T18:37:05.570Z,81.00
2023-03-02T18:39:34.018Z,81.40
2023-03-02T18:42:00.747Z,81.90
2023-03-02T18:44:28.268Z,82.30
2023-03-02T18:46:55.605Z,82.70
2023-03-02T18:49:22.727Z,83.20
2023-03-02T18:51:49.841Z,83.90
2023-03-02T18:54:16.667Z,84.40
2023-03-02T18:56:43.530Z,84.90
2023-03-02T18:59:10.989Z,85.50
2023-03-02T19:01:37.902Z,86.40
2023-03-02T19:04:05.226Z,87.00
2023-03-02T19:06:33.211Z,87.60
2023-03-02T19:08:59.898Z,88.10
2023-03-02T19:11:26.638Z,88.50
2023-03-02T19:13:53.446Z,89.20
2023-03-02T19:16:20.244Z,89.80
2023-03-02T19:18:47.043Z,90.40
2023-03-02T19:21:13.838Z,91.10
2023-03-02T19:23:41.740Z,91.50
2023-03-02T19:26:08.818Z,91.80
2023-03-02T19:28:37.060Z,92.20
2023-03-02T19:31:09.216Z,92.80
2023-03-02T19:33:36.498Z,93.00
2023-03-02T19:36:04.286Z,93.40
2023-03-02T19:38:31.117Z,93.70
2023-03-02T19:40:59.415Z,94.00
2023-03-02T19:43:27.764Z,94.40
2023-03-02T19:45:54.603Z,94.90
2023-03-02T19:48:21.555Z,95.30
2023-03-02T19:50:48.462Z,95.60
2023-03-02T19:53:15.781Z,96.00
2023-03-02T19:55:43.217Z,96.40
2023-03-02T19:58:12.673Z,96.70
2023-03-02T20:00:39.404Z,96.70
2023-03-02T20:03:07.051Z,96.90
2023-03-02T20:05:34.243Z,96.90
2023-03-02T20:08:01.166Z,97.10
2023-03-02T20:10:40.423Z,97.10
2023-03-02T20:13:08.580Z,97.30
2023-03-02T20:15:38.676Z,97.30
2023-03-02T20:18:11.737Z,97.70
2023-03-02T20:20:39.075Z,98.00
2023-03-02T20:23:05.729Z,98.20
2023-03-02T20:25:33.695Z,98.50
2023-03-02T20:28:05.440Z,99.00
2023-03-02T20:30:40.004Z,99.40
2023-03-02T20:33:07.689Z,99.60
2023-03-02T20:35:39.824Z,99.80
2023-03-02T20:38:10.237Z,99.90
2023-03-02T20:40:37.185Z,99.90
2023-03-02T20:43:05.191Z,99.90
2023-03-02T20:45:32.278Z,99.90
2023-03-02T20:47:59.192Z,99.90
2023-03-02T20:50:29.794Z,99.80
2023-03-02T20:52:56.701Z,99.80
2023-03-02T20:55:23.454Z,99.90
2023-03-02T20:57:50.231Z,99.80
2023-03-02T21:00:21.889Z,99.40
2023-03-02T21:02:49.315Z,99.50
2023-03-02T21:05:19.235Z,99.40
2023-03-02T21:07:47.020Z,99.30
2023-03-02T21:10:17.538Z,99.30
2023-03-02T21:12:45.556Z,99.20
2023-03-02T21:15:12.447Z,99.20
2023-03-02T21:17:39.161Z,99.30
2023-03-02T21:20:06.762Z,99.10
2023-03-02T21:22:33.735Z,99.00
2023-03-02T21:25:01.589Z,99.10
2023-03-02T21:27:28.874Z,98.90
2023-03-02T21:29:55.661Z,99.30
2023-03-02T21:32:22.821Z,99.40
2023-03-02T21:34:49.544Z,99.40
2023-03-02T21:37:16.213Z,99.50
2023-03-02T21:39:42.870Z,99.60
2023-03-02T21:42:09.554Z,99.60
2023-03-02T21:44:36.288Z,99.50
2023-03-02T21:47:03.072Z,99.50
2023-03-02T21:49:29.868Z,99.50
2023-03-02T21:51:56.522Z,99.50
2023-03-02T21:54:23.305Z,99.30
2023-03-02T21:56:50.009Z,99.40
2023-03-02T21:59:16.725Z,99.60
2023-03-02T22:01:43.889Z,99.90
2023-03-02T22:04:10.711Z,99.90
2023-03-02T22:06:37.647Z,99.90
2023-03-02T22:09:04.589Z,99.90
2023-03-02T22:11:35.139Z,99.90
2023-03-02T22:14:14.966Z,99.90
2023-03-02T22:16:46.230Z,99.90
2023-03-02T22:19:32.305Z,99.90
2023-03-02T22:22:00.663Z,99.90
2023-03-02T22:24:32.544Z,99.90
2023-03-02T22:27:16.025Z,99.90
2023-03-02T22:29:45.232Z,99.90
2023-03-02T22:32:38.284Z,99.90
2023-03-02T22:35:25.581Z,99.90
2023-03-02T22:38:02.117Z,99.90
2023-03-02T22:40:31.580Z,99.90
2023-03-02T22:43:35.472Z,99.90
2023-03-02T22:46:05.082Z,99.90
2023-03-02T22:48:34.817Z,99.90
2023-03-02T22:51:18.909Z,99.90
2023-03-02T22:53:53.138Z,99.90
2023-03-02T22:56:30.079Z,99.90
2023-03-02T22:59:02.835Z,99.90
2023-03-02T23:01:42.020Z,99.90
2023-03-02T23:04:08.722Z,99.90
2023-03-02T23:06:46.345Z,99.90
2023-03-02T23:09:16.884Z,99.90
2023-03-02T23:11:44.831Z,99.90
2023-03-02T23:14:27.590Z,99.90
2023-03-02T23:17:01.383Z,99.90
2023-03-02T23:19:30.164Z,99.90
2023-03-02T23:21:58.456Z,99.90
2023-03-02T23:24:25.319Z,99.90
2023-03-02T23:26:53.086Z,99.90
2023-03-02T23:29:20.218Z,99.90
2023-03-02T23:31:47.804Z,99.90
2023-03-02T23:34:15.875Z,99.90
2023-03-02T23:36:42.635Z,99.90
2023-03-02T23:39:09.967Z,99.90
2023-03-02T23:41:38.435Z,99.90
2023-03-02T23:44:06.802Z,99.90
2023-03-02T23:46:33.493Z,99.90
2023-03-02T23:49:00.505Z,99.90
2023-03-02T23:51:27.685Z,99.90
2023-03-02T23:53:54.912Z,99.90
2023-03-02T23:56:21.701Z,99.90
2023-03-02T23:58:48.433Z,99.90
